createdAt,value
2018-06-23T00:00:17.370Z,22.00
2018-06-23T00:02:45.957Z,26.27
2018-06-23T00:05:14.585Z,19.13
2018-06-23T00:07:43.117Z,21.90
2018-06-23T00:10:11.626Z,18.20
2018-06-23T00:12:40.163Z,19.50
2018-06-23T00:15:08.686Z,22.37
2018-06-23T00:17:37.341Z,22.37
2018-06-23T00:20:06.673Z,33.73
2018-06-23T00:22:35.261Z,28.33
2018-06-23T00:25:03.843Z,32.60
2018-06-23T00:27:32.393Z,34.23
2018-06-23T00:30:00.942Z,29.17
2018-06-23T00:32:29.468Z,27.37
2018-06-23T00:34:58.002Z,28.50
2018-06-23T00:37:26.522Z,27.70
2018-06-23T00:39:55.057Z,23.50
2018-06-23T00:42:23.569Z,25.20
2018-06-23T00:44:52.076Z,31.47
2018-06-23T00:47:20.586Z,22.50
2018-06-23T00:49:49.127Z,29.53
2018-06-23T00:52:17.608Z,25.50
2018-06-23T00:54:46.141Z,29.20
2018-06-23T00:57:14.657Z,23.23
2018-06-23T00:59:44.261Z,28.40
2018-06-23T01:02:12.757Z,28.13
2018-06-23T01:04:41.300Z,25.53
2018-06-23T01:07:10.466Z,22.63
2018-06-23T01:16:27.473Z,22.93
2018-06-23T01:18:55.963Z,33.50
2018-06-23T01:21:24.493Z,24.70
2018-06-23T01:23:53.009Z,29.67
2018-06-23T01:26:21.530Z,32.87
2018-06-23T01:28:50.021Z,27.90
2018-06-23T01:31:18.573Z,26.40
2018-06-23T01:33:47.078Z,36.90
2018-06-23T01:36:15.625Z,24.47
2018-06-23T01:38:44.213Z,41.33
2018-06-23T01:41:12.729Z,31.80
2018-06-23T01:43:41.257Z,24.43
2018-06-23T01:46:09.861Z,29.50
2018-06-23T01:48:38.346Z,30.70
2018-06-23T01:51:07.296Z,30.80
2018-06-23T01:53:35.923Z,21.73
2018-06-23T01:56:04.494Z,29.30
2018-06-23T01:58:33.007Z,21.67
2018-06-23T02:01:01.597Z,27.97
2018-06-23T02:03:30.137Z,24.60
2018-06-23T02:05:58.612Z,30.43
2018-06-23T02:08:27.117Z,33.73
2018-06-23T02:10:55.635Z,23.13
2018-06-23T02:13:24.246Z,25.27
2018-06-23T02:15:58.157Z,38.83
2018-06-23T02:18:31.990Z,43.93
2018-06-23T02:21:05.865Z,25.47
2018-06-23T02:23:39.745Z,45.23
2018-06-23T02:26:13.677Z,53.40
2018-06-23T02:28:47.501Z,38.27
2018-06-23T02:31:21.370Z,33.63
2018-06-23T02:33:55.319Z,38.93
2018-06-23T02:36:23.797Z,23.23
2018-06-23T02:38:52.345Z,43.23
2018-06-23T02:41:20.909Z,38.70
2018-06-23T02:43:49.430Z,22.30
2018-06-23T02:46:17.966Z,35.90
2018-06-23T02:48:46.482Z,34.40
2018-06-23T02:51:14.969Z,27.77
2018-06-23T02:53:43.524Z,32.37
2018-06-23T02:56:12.014Z,33.03
2018-06-23T02:58:40.638Z,40.30
2018-06-23T03:01:09.178Z,24.67
2018-06-23T03:03:37.818Z,38.40
2018-06-23T03:06:06.522Z,35.97
2018-06-23T03:08:35.038Z,41.80
2018-06-23T03:11:03.571Z,38.63
2018-06-23T03:13:32.146Z,55.07
2018-06-23T03:16:00.674Z,39.00
2018-06-23T03:18:29.304Z,38.40
2018-06-23T03:20:57.753Z,44.10
2018-06-23T03:23:26.254Z,35.03
2018-06-23T03:25:54.766Z,28.77
2018-06-23T03:28:23.249Z,40.60
2018-06-23T03:30:51.794Z,31.53
2018-06-23T03:33:20.301Z,34.37
2018-06-23T03:35:48.796Z,41.33
2018-06-23T03:38:17.314Z,38.50
2018-06-23T03:40:45.873Z,29.40
2018-06-23T03:43:14.367Z,38.00
2018-06-23T03:45:43.869Z,35.83
2018-06-23T03:48:12.366Z,42.97
2018-06-23T03:50:40.890Z,54.73
2018-06-23T03:53:09.382Z,44.83
2018-06-23T03:55:37.929Z,41.27
2018-06-23T03:58:06.545Z,31.50
2018-06-23T04:00:35.305Z,36.20
2018-06-23T04:03:03.804Z,35.20
2018-06-23T04:05:32.333Z,31.37
2018-06-23T04:08:00.829Z,44.80
2018-06-23T04:10:29.361Z,34.63
2018-06-23T04:12:57.865Z,29.20
2018-06-23T04:15:26.378Z,33.47
2018-06-23T04:17:54.874Z,34.77
2018-06-23T04:20:23.417Z,41.80
2018-06-23T04:22:51.954Z,42.20
2018-06-23T04:25:20.486Z,33.07
2018-06-23T04:27:48.955Z,22.67
2018-06-23T04:30:17.477Z,44.20
2018-06-23T04:32:46.017Z,32.93
2018-06-23T04:35:14.517Z,31.10
2018-06-23T04:37:43.042Z,30.17
2018-06-23T04:40:11.553Z,32.83
2018-06-23T04:42:40.080Z,27.23
2018-06-23T04:45:08.581Z,35.47
2018-06-23T04:47:37.154Z,39.70
2018-06-23T04:50:05.686Z,24.30
2018-06-23T04:52:34.227Z,25.20
2018-06-23T04:55:02.750Z,32.20
2018-06-23T04:57:31.301Z,45.00
2018-06-23T04:59:59.809Z,34.30
2018-06-23T05:02:28.597Z,31.80
2018-06-23T05:04:57.086Z,45.23
2018-06-23T05:07:25.616Z,30.10
2018-06-23T05:09:54.113Z,28.77
2018-06-23T05:12:22.706Z,34.50
2018-06-23T05:14:51.256Z,29.90
2018-06-23T05:17:19.820Z,32.20
2018-06-23T05:19:48.338Z,27.40
2018-06-23T05:22:16.894Z,26.17
2018-06-23T05:24:45.397Z,29.53
2018-06-23T05:27:14.053Z,26.13
2018-06-23T05:29:42.603Z,24.60
2018-06-23T05:32:11.189Z,28.87
2018-06-23T05:34:39.720Z,30.73
2018-06-23T05:37:08.261Z,23.53
2018-06-23T05:39:36.874Z,20.13
2018-06-23T05:42:05.574Z,28.23
2018-06-23T05:44:34.131Z,18.17
2018-06-23T05:47:02.743Z,26.60
2018-06-23T05:49:31.277Z,19.80
2018-06-23T05:51:59.795Z,24.80
2018-06-23T05:54:28.335Z,21.70
2018-06-23T05:56:56.836Z,24.93
2018-06-23T05:59:25.433Z,25.93
2018-06-23T06:01:54.022Z,19.40
2018-06-23T06:04:22.564Z,24.33
2018-06-23T06:06:51.091Z,24.97
2018-06-23T06:09:19.613Z,27.33
2018-06-23T06:11:48.186Z,20.17
2018-06-23T06:14:16.689Z,28.07
2018-06-23T06:17:25.608Z,23.00
2018-06-23T06:19:56.237Z,26.23
2018-06-23T06:22:25.857Z,30.63
2018-06-23T06:24:54.541Z,28.50
2018-06-23T06:27:23.041Z,14.80
2018-06-23T06:29:52.408Z,22.97
2018-06-23T06:32:20.989Z,30.63
2018-06-23T06:34:49.541Z,23.57
2018-06-23T06:37:18.095Z,19.10
2018-06-23T06:39:46.689Z,29.17
2018-06-23T06:42:15.348Z,19.70
2018-06-23T06:44:43.973Z,26.00
2018-06-23T06:47:14.173Z,15.27
2018-06-23T06:49:42.885Z,32.20
2018-06-23T06:52:11.409Z,19.40
2018-06-23T06:54:39.962Z,27.60
2018-06-23T06:57:08.534Z,21.47
2018-06-23T06:59:37.135Z,27.00
2018-06-23T07:02:05.837Z,29.13
2018-06-23T07:04:34.427Z,19.43
2018-06-23T07:07:03.742Z,15.07
2018-06-23T07:09:32.298Z,29.97
2018-06-23T07:12:00.915Z,23.07
2018-06-23T07:14:29.549Z,24.43
2018-06-23T07:16:58.983Z,22.63
2018-06-23T07:19:27.454Z,24.20
2018-06-23T07:21:56.032Z,25.50
2018-06-23T07:24:24.514Z,26.13
2018-06-23T07:26:53.050Z,17.67
2018-06-23T07:29:21.582Z,23.40
2018-06-23T07:31:50.130Z,22.23
2018-06-23T07:34:18.733Z,25.87
2018-06-23T07:36:47.254Z,17.40
2018-06-23T07:39:15.726Z,27.67
2018-06-23T07:41:46.571Z,27.10
2018-06-23T07:44:15.125Z,20.43
2018-06-23T07:46:43.710Z,25.37
2018-06-23T07:49:12.232Z,20.33
2018-06-23T07:51:40.749Z,28.27
2018-06-23T07:54:09.225Z,18.07
2018-06-23T07:56:37.788Z,16.50
2018-06-23T07:59:06.311Z,23.43
2018-06-23T08:01:34.825Z,28.27
2018-06-23T08:04:03.354Z,18.37
2018-06-23T08:06:31.869Z,17.77
2018-06-23T08:09:00.349Z,33.47
2018-06-23T08:11:28.905Z,23.47
2018-06-23T08:13:57.457Z,25.73
2018-06-23T08:16:25.982Z,22.57
2018-06-23T08:18:54.595Z,30.00
2018-06-23T08:21:23.112Z,18.43
2018-06-23T08:23:51.630Z,27.10
2018-06-23T08:26:20.209Z,24.57
2018-06-23T08:28:48.639Z,24.03
2018-06-23T08:31:17.252Z,24.13
2018-06-23T08:33:46.262Z,11.33
2018-06-23T08:36:14.797Z,14.40
2018-06-23T08:38:43.316Z,15.87
2018-06-23T08:41:11.821Z,18.23
2018-06-23T08:43:40.373Z,18.33
2018-06-23T08:46:08.966Z,19.33
2018-06-23T08:48:37.492Z,20.93
2018-06-23T08:51:06.053Z,22.60
2018-06-23T08:53:34.802Z,14.33
2018-06-23T08:56:03.407Z,16.33
2018-06-23T08:58:31.923Z,19.07
2018-06-23T09:01:00.473Z,12.80
2018-06-23T09:03:28.945Z,20.93
2018-06-23T09:05:57.501Z,13.20
2018-06-23T09:08:25.964Z,13.80
2018-06-23T09:10:54.565Z,12.97
2018-06-23T09:13:23.097Z,10.30
2018-06-23T09:15:51.687Z,13.43
2018-06-23T09:18:20.193Z,25.43
2018-06-23T09:20:48.766Z,19.13
2018-06-23T09:23:17.274Z,9.30
2018-06-23T09:25:45.807Z,17.67
2018-06-23T09:28:14.370Z,17.33
2018-06-23T09:30:42.865Z,18.77
2018-06-23T09:33:11.384Z,16.57
2018-06-23T09:35:39.945Z,16.10
2018-06-23T09:38:08.481Z,15.37
2018-06-23T09:40:37.167Z,9.20
2018-06-23T09:43:05.724Z,14.30
2018-06-23T09:45:34.221Z,15.30
2018-06-23T09:48:02.894Z,14.10
2018-06-23T09:50:31.373Z,10.17
2018-06-23T09:52:59.903Z,12.23
2018-06-23T09:55:28.393Z,17.23
2018-06-23T09:57:56.999Z,20.80
2018-06-23T10:00:29.196Z,12.10
2018-06-23T10:03:00.690Z,19.53
2018-06-23T10:05:30.165Z,16.90
2018-06-23T10:07:59.621Z,11.73
2018-06-23T10:10:28.565Z,26.13
2018-06-23T10:12:57.146Z,15.90
2018-06-23T10:15:25.694Z,14.30
2018-06-23T10:17:54.221Z,17.17
2018-06-23T10:20:22.737Z,13.17
2018-06-23T10:22:51.260Z,15.43
2018-06-23T10:25:19.421Z,19.03
2018-06-23T10:27:47.970Z,17.90
2018-06-23T10:30:16.453Z,11.70
2018-06-23T10:32:44.997Z,12.63
2018-06-23T10:35:14.042Z,14.97
2018-06-23T10:37:42.649Z,16.17
2018-06-23T10:40:11.297Z,9.70
2018-06-23T10:42:40.002Z,15.73
2018-06-23T10:45:08.595Z,13.37
2018-06-23T10:47:37.138Z,11.73
2018-06-23T10:50:05.912Z,20.93
2018-06-23T10:52:34.946Z,13.57
2018-06-23T10:55:03.747Z,13.50
2018-06-23T10:57:31.919Z,9.00
2018-06-23T11:00:00.487Z,12.50
2018-06-23T11:02:28.989Z,9.57
2018-06-23T11:04:57.695Z,10.60
2018-06-23T11:07:26.226Z,9.83
2018-06-23T11:09:54.758Z,11.07
2018-06-23T11:12:23.289Z,10.07
2018-06-23T11:14:51.841Z,12.00
2018-06-23T11:17:20.545Z,11.83
2018-06-23T11:19:49.150Z,10.47
2018-06-23T11:22:17.812Z,17.77
2018-06-23T11:24:46.362Z,12.30
2018-06-23T11:27:14.882Z,10.77
2018-06-23T11:29:43.590Z,12.63
2018-06-23T11:32:12.100Z,6.33
2018-06-23T11:34:40.745Z,6.90
2018-06-23T11:37:09.394Z,11.53
2018-06-23T11:39:37.992Z,10.43
2018-06-23T11:42:06.499Z,12.53
2018-06-23T11:44:35.196Z,7.70
2018-06-23T11:47:03.773Z,5.00
2018-06-23T11:49:32.381Z,6.67
2018-06-23T11:52:00.949Z,10.67
2018-06-23T11:54:29.494Z,7.70
2018-06-23T11:56:58.037Z,9.63
2018-06-23T11:59:26.569Z,11.07
2018-06-23T12:01:55.261Z,10.60
2018-06-23T12:04:25.564Z,3.70
2018-06-23T12:06:54.365Z,8.07
2018-06-23T12:09:23.665Z,7.73
2018-06-23T12:11:52.693Z,8.33
2018-06-23T12:14:20.899Z,4.93
2018-06-23T12:16:49.553Z,10.30
2018-06-23T12:19:18.289Z,37.17
2018-06-23T12:21:46.853Z,9.90
2018-06-23T12:24:15.445Z,5.43
2018-06-23T12:26:44.022Z,3.37
2018-06-23T12:29:12.513Z,9.97
2018-06-23T12:31:41.034Z,6.90
2018-06-23T12:34:09.700Z,12.13
2018-06-23T12:36:38.230Z,8.40
2018-06-23T12:39:09.229Z,6.30
2018-06-23T12:41:37.918Z,8.70
2018-06-23T12:44:06.619Z,5.70
2018-06-23T12:46:35.210Z,6.60
2018-06-23T12:49:03.789Z,4.33
2018-06-23T12:51:32.381Z,7.10
2018-06-23T12:54:00.918Z,8.50
2018-06-23T12:56:29.453Z,10.97
2018-06-23T12:58:58.014Z,8.73
2018-06-23T13:01:26.523Z,3.43
2018-06-23T13:03:55.061Z,4.77
2018-06-23T13:06:23.573Z,9.10
2018-06-23T13:08:52.109Z,8.17
2018-06-23T13:11:20.609Z,7.43
2018-06-23T13:13:49.191Z,3.50
2018-06-23T13:16:17.690Z,7.67
2018-06-23T13:18:46.298Z,3.60
2018-06-23T13:21:14.887Z,15.67
2018-06-23T13:23:43.433Z,6.20
2018-06-23T13:26:11.921Z,7.07
2018-06-23T13:28:40.449Z,11.83
2018-06-23T13:31:08.953Z,4.33
2018-06-23T13:33:37.501Z,7.10
2018-06-23T13:36:06.019Z,8.50
2018-06-23T13:38:34.579Z,6.10
2018-06-23T13:41:06.613Z,5.60
2018-06-23T13:43:35.337Z,11.80
2018-06-23T13:46:03.870Z,7.97
2018-06-23T13:48:32.535Z,11.83
2018-06-23T13:51:01.181Z,9.67
2018-06-23T13:53:29.700Z,14.97
2018-06-23T13:55:58.319Z,8.17
2018-06-23T13:58:26.962Z,8.27
2018-06-23T14:00:55.160Z,15.47
2018-06-23T14:03:24.582Z,14.67
2018-06-23T14:05:53.226Z,18.03
2018-06-23T14:08:21.950Z,16.70
2018-06-23T14:10:50.525Z,17.20
2018-06-23T14:13:19.039Z,10.50
2018-06-23T14:15:47.678Z,15.53
2018-06-23T14:18:16.178Z,8.40
2018-06-23T14:20:44.765Z,6.83
2018-06-23T14:23:13.289Z,13.50
2018-06-23T14:25:42.139Z,12.50
2018-06-23T14:28:10.634Z,9.07
2018-06-23T14:30:39.231Z,9.97
2018-06-23T14:33:07.753Z,14.00
2018-06-23T14:35:36.291Z,17.20
2018-06-23T14:38:04.849Z,16.37
2018-06-23T14:40:33.381Z,9.00
2018-06-23T14:43:01.957Z,17.73
2018-06-23T14:45:30.500Z,12.93
2018-06-23T14:47:59.069Z,10.63
2018-06-23T14:50:27.620Z,13.87
2018-06-23T14:52:56.157Z,6.97
2018-06-23T14:55:24.673Z,12.43
2018-06-23T14:57:53.341Z,10.60
2018-06-23T15:00:21.985Z,15.40
2018-06-23T15:02:50.545Z,13.03
2018-06-23T15:05:19.061Z,7.63
2018-06-23T15:07:47.898Z,11.77
2018-06-23T15:10:27.783Z,11.47
2018-06-23T15:13:07.405Z,12.90
2018-06-23T15:15:35.904Z,14.13
2018-06-23T15:18:04.481Z,14.77
2018-06-23T15:20:32.986Z,10.07
2018-06-23T15:23:01.575Z,10.97
2018-06-23T15:25:30.081Z,11.57
2018-06-23T15:27:58.904Z,7.67
2018-06-23T15:30:27.060Z,6.60
2018-06-23T15:32:57.293Z,7.80
2018-06-23T15:35:25.763Z,14.80
2018-06-23T15:37:54.572Z,13.00
2018-06-23T15:40:23.114Z,9.23
2018-06-23T15:42:51.623Z,9.40
2018-06-23T15:45:20.145Z,7.77
2018-06-23T15:47:48.727Z,11.37
2018-06-23T15:50:17.711Z,14.20
2018-06-23T15:52:46.186Z,7.40
2018-06-23T15:55:14.758Z,8.53
2018-06-23T15:57:43.666Z,5.00
2018-06-23T16:00:12.262Z,9.63
2018-06-23T16:02:40.795Z,6.57
2018-06-23T16:05:10.113Z,13.67
2018-06-23T16:07:38.613Z,7.47
2018-06-23T16:10:12.873Z,14.90
2018-06-23T16:12:41.381Z,3.90
2018-06-23T16:15:09.957Z,4.27
2018-06-23T16:17:39.305Z,8.60
2018-06-23T16:20:07.903Z,7.73
2018-06-23T16:22:36.408Z,12.10
2018-06-23T16:25:05.310Z,12.87
2018-06-23T16:27:34.003Z,5.80
2018-06-23T16:30:02.538Z,6.83
2018-06-23T16:32:31.122Z,19.97
2018-06-23T16:34:59.881Z,8.43
2018-06-23T16:37:28.305Z,6.17
2018-06-23T16:39:56.937Z,6.27
2018-06-23T16:42:25.485Z,5.50
2018-06-23T16:44:55.104Z,8.27
2018-06-23T16:47:23.700Z,9.10
2018-06-23T16:49:52.299Z,8.30
2018-06-23T16:52:20.858Z,11.53
2018-06-23T16:54:49.434Z,2.67
2018-06-23T16:57:19.335Z,5.63
2018-06-23T16:59:47.861Z,9.20
2018-06-23T17:02:16.361Z,5.50
2018-06-23T17:04:45.682Z,11.50
2018-06-23T17:07:14.266Z,9.83
2018-06-23T17:09:43.134Z,4.53
2018-06-23T17:12:11.658Z,8.43
2018-06-23T17:14:41.893Z,9.20
2018-06-23T17:17:10.459Z,5.93
2018-06-23T17:19:39.021Z,5.90
2018-06-23T17:22:07.546Z,7.70
2018-06-23T17:24:36.066Z,5.03
2018-06-23T17:27:04.731Z,4.23
2018-06-23T17:29:35.041Z,8.03
2018-06-23T17:32:03.591Z,7.07
2018-06-23T17:34:32.114Z,9.73
2018-06-23T17:37:00.646Z,8.23
2018-06-23T17:39:29.267Z,8.60
2018-06-23T17:41:57.839Z,8.00
2018-06-23T17:44:26.634Z,5.43
2018-06-23T17:46:55.176Z,7.63
2018-06-23T17:49:24.407Z,9.30
2018-06-23T17:51:52.922Z,12.43
2018-06-23T17:54:21.447Z,8.77
2018-06-23T17:56:49.961Z,7.23
2018-06-23T17:59:18.538Z,12.67
2018-06-23T18:01:47.109Z,5.10
2018-06-23T18:04:15.753Z,8.93
2018-06-23T18:06:44.271Z,12.90
2018-06-23T18:09:12.943Z,12.83
2018-06-23T18:11:41.537Z,5.60
2018-06-23T18:14:10.482Z,5.93
2018-06-23T18:16:39.015Z,19.10
2018-06-23T18:19:07.978Z,5.73
2018-06-23T18:21:36.481Z,6.03
2018-06-23T18:24:05.109Z,5.93
2018-06-23T18:26:34.149Z,9.70
2018-06-23T18:29:02.753Z,7.93
2018-06-23T18:31:31.269Z,7.80
2018-06-23T18:33:59.833Z,6.67
2018-06-23T18:36:28.326Z,8.50
2018-06-23T18:38:56.941Z,10.13
2018-06-23T18:44:26.597Z,8.87
2018-06-23T18:46:55.099Z,9.67
2018-06-23T18:49:23.637Z,11.07
2018-06-23T18:51:52.217Z,9.03
2018-06-23T18:54:20.763Z,8.73
2018-06-23T18:56:49.245Z,9.30
2018-06-23T18:59:17.816Z,7.80
2018-06-23T19:01:46.384Z,16.17
2018-06-23T19:04:14.541Z,8.60
2018-06-23T19:06:43.211Z,8.13
2018-06-23T19:09:11.791Z,12.13
2018-06-23T19:11:40.312Z,9.70
2018-06-23T19:14:09.121Z,8.40
2018-06-23T19:16:37.714Z,8.53
2018-06-23T19:19:06.273Z,9.87
2018-06-23T19:21:34.793Z,14.97
2018-06-23T19:24:03.316Z,8.83
2018-06-23T19:26:31.950Z,7.63
2018-06-23T19:29:00.486Z,12.43
2018-06-23T19:31:30.425Z,5.73
2018-06-23T19:33:59.085Z,13.90
2018-06-23T19:36:27.649Z,10.27
2018-06-23T19:38:56.161Z,11.77
2018-06-23T19:41:27.810Z,9.00
2018-06-23T19:43:56.380Z,8.03
2018-06-23T19:46:25.018Z,13.40
2018-06-23T19:48:53.540Z,6.13
2018-06-23T19:51:22.098Z,10.00
2018-06-23T19:53:50.692Z,6.83
2018-06-23T19:56:19.257Z,5.50
2018-06-23T19:58:47.875Z,9.80
2018-06-23T20:01:16.405Z,11.30
2018-06-23T20:03:44.877Z,13.70
2018-06-23T20:06:13.485Z,8.50
2018-06-23T20:08:41.985Z,16.17
2018-06-23T20:11:10.525Z,12.13
2018-06-23T20:13:39.005Z,14.20
2018-06-23T20:16:07.541Z,6.37
2018-06-23T20:18:36.006Z,15.57
2018-06-23T20:21:04.566Z,9.10
2018-06-23T20:23:33.081Z,6.67
2018-06-23T20:26:02.453Z,11.73
2018-06-23T20:28:30.953Z,15.00
2018-06-23T20:30:59.451Z,14.33
2018-06-23T20:33:28.042Z,9.93
2018-06-23T20:35:56.574Z,9.03
2018-06-23T20:38:25.113Z,12.33
2018-06-23T20:40:53.633Z,8.03
2018-06-23T20:43:22.216Z,11.47
2018-06-23T20:45:50.766Z,11.63
2018-06-23T20:48:19.300Z,14.03
2018-06-23T20:50:47.824Z,4.20
2018-06-23T20:53:16.369Z,9.70
2018-06-23T20:55:44.901Z,13.40
2018-06-23T20:58:13.466Z,12.17
2018-06-23T21:00:42.009Z,10.03
2018-06-23T21:03:10.593Z,5.80
2018-06-23T21:05:39.135Z,7.60
2018-06-23T21:08:07.733Z,10.47
2018-06-23T21:10:40.081Z,11.57
2018-06-23T21:13:08.794Z,8.47
2018-06-23T21:15:37.450Z,15.60
2018-06-23T21:18:06.461Z,8.97
2018-06-23T21:20:34.954Z,7.40
2018-06-23T21:23:04.072Z,12.37
2018-06-23T21:25:32.580Z,11.57
2018-06-23T21:28:01.145Z,7.17
2018-06-23T21:30:29.709Z,14.93
2018-06-23T21:32:58.208Z,15.53
2018-06-23T21:35:26.752Z,8.30
2018-06-23T21:37:55.350Z,8.90
2018-06-23T21:40:23.920Z,12.37
2018-06-23T21:42:52.406Z,9.33
2018-06-23T21:45:20.939Z,11.73
2018-06-23T21:47:49.484Z,9.60
2018-06-23T21:50:18.017Z,13.77
2018-06-23T21:52:46.537Z,17.80
2018-06-23T21:55:15.077Z,9.83
2018-06-23T21:57:43.621Z,15.00
2018-06-23T22:00:38.056Z,12.00
2018-06-23T22:03:08.022Z,8.70
2018-06-23T22:05:36.568Z,6.57
2018-06-23T22:08:05.808Z,7.90
2018-06-23T22:10:34.340Z,12.83
2018-06-23T22:13:02.557Z,9.93
2018-06-23T22:15:31.097Z,11.07
2018-06-23T22:17:59.620Z,13.83
2018-06-23T22:20:28.130Z,19.60
2018-06-23T22:22:56.689Z,18.33
2018-06-23T22:25:25.229Z,11.47
2018-06-23T22:27:53.726Z,17.30
2018-06-23T22:30:22.832Z,12.00
2018-06-23T22:32:51.360Z,14.80
2018-06-23T22:35:20.073Z,14.33
2018-06-23T22:37:48.617Z,10.27
2018-06-23T22:40:17.165Z,12.47
2018-06-23T22:42:45.690Z,10.23
2018-06-23T22:45:14.209Z,15.90
2018-06-23T22:47:42.878Z,14.80
2018-06-23T22:50:11.580Z,19.50
2018-06-23T22:52:40.120Z,11.77
2018-06-23T22:55:09.725Z,14.80
2018-06-23T22:57:38.247Z,17.70
2018-06-23T23:00:10.433Z,18.53
2018-06-23T23:02:38.975Z,22.77
2018-06-23T23:05:07.801Z,12.80
2018-06-23T23:07:36.282Z,13.93
2018-06-23T23:10:05.464Z,10.30
2018-06-23T23:12:34.025Z,19.07
2018-06-23T23:15:02.617Z,14.30
2018-06-23T23:17:31.389Z,14.30
2018-06-23T23:19:59.861Z,12.10
2018-06-23T23:22:28.467Z,15.53
2018-06-23T23:24:56.937Z,11.03
2018-06-23T23:27:25.468Z,14.93
2018-06-23T23:29:53.998Z,9.50
2018-06-23T23:32:22.543Z,14.50
2018-06-23T23:34:51.363Z,12.10
2018-06-23T23:37:20.279Z,10.57
2018-06-23T23:39:50.249Z,11.70
2018-06-23T23:42:18.769Z,14.03
2018-06-23T23:44:47.311Z,19.13
2018-06-23T23:47:15.842Z,13.67
2018-06-23T23:49:44.362Z,14.43
2018-06-23T23:52:12.975Z,17.77
2018-06-23T23:54:41.540Z,14.80
2018-06-23T23:57:11.198Z,19.93
2018-06-23T23:59:39.701Z,11.23
